36.52977, -87.35945

Hourly Observations for October 9, 2019

Temp ( °F °C ) Dew Point ( °F °C ) Humidity (%) Winds ( mph kmh ) Pressure ( in mb ) Visibility ( mi km ) Precip ( " mm )
12:52 am 00:52 Clear 42 5.6 38 3.3 85 85 Calm 30.06 1018 10 16.09344 0 0
1:52 am 01:52 Clear 41 5 38 3.3 89 89 W 3 6 30.06 1018 10 16.09344 0 0
2:52 am 02:52 Clear 39 3.9 37 2.8 93 93 NW 5 7 30.06 1018 10 16.09344 0 0
3:52 am 03:52 Clear 40 4.4 38 3.3 93 93 W 3 6 30.06 1018 10 16.09344 0 0
4:52 am 04:52 Clear 38 3.3 37 2.8 97 97 Calm 30.06 1018 10 16.09344 0 0
5:52 am 05:52 Clear 38 3.3 37 2.8 97 97 Calm 30.06 1018 10 16.09344 0 0
6:52 am 06:52 Clear 37 2.8 36 2.2 96 96 Calm 30.06 1018 10 16.09344 0 0
7:52 am 07:52 Sunny 41 5 38 3.3 89 89 WNW 5 7 30.09 1019 10 16.09344 0 0
8:52 am 08:52 Sunny 46 7.8 40 4.4 79 79 NNW 7 11 30.09 1019 10 16.09344 0 0
9:52 am 09:52 Sunny 51 10.6 40 4.4 66 66 VRB 6 9 30.09 1019 10 16.09344 0 0
10:52 am 10:52 Mostly Sunny 53 11.7 38 3.3 57 57 N 8 13 30.09 1019 10 16.09344 0 0
11:52 am 11:52 Mostly Sunny 56 13.3 39 3.9 53 53 NE 5 7 30.06 1018 10 16.09344 0 0
12:52 pm 12:52 Mostly Sunny 56 13.3 38 3.3 51 51 NW 5 7 30.06 1018 10 16.09344 0 0
1:52 pm 13:52 Sunny 57 13.9 38 3.3 49 49 VRB 3 6 30.03 1017 10 16.09344 0 0
2:52 pm 14:52 Sunny 59 15 39 3.9 48 48 VRB 3 6 30 1016 10 16.09344 0 0
3:52 pm 15:52 Sunny 60 15.6 38 3.3 44 44 NNW 5 7 30 1016 10 16.09344 0 0
4:52 pm 16:52 Sunny 59 15 38 3.3 46 46 NW 5 7 30 1016 10 16.09344 0 0
5:52 pm 17:52 Sunny 57 13.9 39 3.9 51 51 WNW 5 7 30 1016 10 16.09344 0 0
6:52 pm 18:52 Clear 53 11.7 39 3.9 59 59 Calm 30 1016 10 16.09344 0 0
7:52 pm 19:52 Clear 48 8.9 41 5 77 77 W 3 6 30.03 1017 10 16.09344 0 0
8:52 pm 20:52 Clear 47 8.3 41 5 80 80 Calm 30 1016 10 16.09344 0 0
9:52 pm 21:52 Clear 45 7.2 42 5.6 90 90 Calm 30.03 1017 10 16.09344 0 0
10:52 pm 22:52 Clear 43 6.1 41 5 93 93 Calm 30.03 1017 10 16.09344 0 0
11:52 pm 23:52 Clear 42 5.6 41 5 96 96 NNE 5 7 30 1016 10 16.09344 0 0

Powered by AerisWeather